PWSweather.com
Personal Weather Stations
Station Observations

YeovilGB

Lat: 50.949, Lon: -2.627

Elevation: 70

Station Type: Vantage Pro

http://www.yeovil-weather.me.uk/

High Low Average
Temperature 62.2°F16.8°C 46.0°F7.8°C 51.5°F10.8°C
Dew Point 49.7°F9.8°C 42.2°F5.7°C 46.0°F7.8°C
Winds 6.9 mph 11.1 kmh Calm Calm 1.0 mph SSW1.6 kmh SSW
Wind Gusts 11.5 mph18.5 kmh -- 3.0 mph4.8 kmh
Humidity 96% 48% 83%
Pressure 29.92 in1013.2 mb 29.43 in996.6 mb -
Precipitation 0.03 in0.8 mm - -
Hour Temp Dew Point Humidity Winds Wind Gusts Pressure Precip Precip Rate Daily Precip Total
12:00 AM 48.1°F8.9°C 46.7°F8.2°C 95% Calm Calm -- 29.44 in997.0 mb - 0.00 in0.0 mm 0.00 in0.0 mm
12:10 AM 48.0°F8.9°C 46.6°F8.1°C 95% Calm Calm -- 29.44 in997.0 mb - 0.00 in0.0 mm 0.00 in0.0 mm
12:20 AM 48.0°F8.9°C 46.6°F8.1°C 95% Calm Calm -- 29.44 in997.0 mb - 0.00 in0.0 mm 0.00 in0.0 mm
12:30 AM 47.9°F8.8°C 46.5°F8.1°C 95% Calm Calm -- 29.44 in997.0 mb - 0.00 in0.0 mm 0.00 in0.0 mm
12:40 AM 47.8°F8.8°C 46.4°F8.0°C 95% Calm Calm -- 29.44 in997.0 mb - 0.00 in0.0 mm 0.00 in0.0 mm
12:50 AM 47.8°F8.8°C 46.7°F8.2°C 96% Calm Calm -- 29.43 in996.6 mb - 0.00 in0.0 mm 0.00 in0.0 mm
01:00 AM 47.7°F8.7°C 46.6°F8.1°C 96% Calm Calm -- 29.44 in997.0 mb - 0.00 in0.0 mm 0.00 in0.0 mm
01:10 AM 47.7°F8.7°C 46.4°F8.0°C 95% Calm Calm -- 29.44 in997.0 mb - 0.00 in0.0 mm 0.00 in0.0 mm
01:20 AM 47.7°F8.7°C 46.3°F7.9°C 95% Calm Calm -- 29.44 in997.0 mb - 0.00 in0.0 mm 0.00 in0.0 mm
01:30 AM 47.7°F8.7°C 46.6°F8.1°C 96% Calm Calm -- 29.45 in997.3 mb - 0.00 in0.0 mm 0.00 in0.0 mm
01:40 AM 47.7°F8.7°C 46.6°F8.1°C 96% Calm Calm -- 29.45 in997.3 mb - 0.00 in0.0 mm 0.00 in0.0 mm
01:50 AM 47.6°F8.7°C 46.5°F8.1°C 96% Calm Calm -- 29.45 in997.3 mb - 0.00 in0.0 mm 0.00 in0.0 mm
02:00 AM 47.6°F8.7°C 46.5°F8.1°C 96% 2.3 mph SSE3.7 kmh SSE 3.5 mph5.6 kmh 29.45 in997.3 mb - 0.00 in0.0 mm 0.00 in0.0 mm
02:10 AM 47.6°F8.7°C 46.5°F8.1°C 96% Calm Calm -- 29.45 in997.3 mb - 0.00 in0.0 mm 0.00 in0.0 mm
02:20 AM 47.6°F8.7°C 46.5°F8.1°C 96% Calm Calm -- 29.46 in997.6 mb - 0.00 in0.0 mm 0.00 in0.0 mm
02:30 AM 47.5°F8.6°C 46.4°F8.0°C 96% Calm Calm -- 29.46 in997.6 mb - 0.00 in0.0 mm 0.00 in0.0 mm
02:40 AM 47.4°F8.6°C 46.3°F7.9°C 96% Calm Calm -- 29.47 in998.0 mb - 0.00 in0.0 mm 0.00 in0.0 mm
02:50 AM 47.2°F8.4°C 46.1°F7.8°C 96% Calm Calm -- 29.47 in998.0 mb - 0.00 in0.0 mm 0.00 in0.0 mm
03:00 AM 47.2°F8.4°C 46.1°F7.8°C 96% Calm Calm -- 29.47 in998.0 mb - 0.00 in0.0 mm 0.00 in0.0 mm
03:10 AM 47.2°F8.4°C 46.1°F7.8°C 96% Calm Calm -- 29.47 in998.0 mb - 0.00 in0.0 mm 0.00 in0.0 mm
03:20 AM 47.2°F8.4°C 46.1°F7.8°C 96% Calm Calm 1.2 mph1.9 kmh 29.47 in998.0 mb - 0.00 in0.0 mm 0.00 in0.0 mm
03:30 AM 47.2°F8.4°C 46.1°F7.8°C 96% Calm Calm -- 29.47 in998.0 mb - 0.01 in0.3 mm 0.01 in0.3 mm
03:40 AM 47.2°F8.4°C 46.1°F7.8°C 96% Calm Calm -- 29.48 in998.3 mb - 0.01 in0.3 mm 0.02 in0.5 mm
03:50 AM 47.2°F8.4°C 46.1°F7.8°C 96% Calm Calm 3.5 mph5.6 kmh 29.48 in998.3 mb - 0.00 in0.0 mm 0.02 in0.5 mm
04:00 AM 47.2°F8.4°C 46.1°F7.8°C 96% Calm Calm -- 29.48 in998.3 mb - 0.00 in0.0 mm 0.02 in0.5 mm
04:10 AM 47.0°F8.3°C 45.9°F7.7°C 96% Calm Calm 2.3 mph3.7 kmh 29.48 in998.3 mb - 0.01 in0.3 mm 0.02 in0.5 mm
04:20 AM 46.9°F8.3°C 45.8°F7.7°C 96% Calm Calm -- 29.48 in998.3 mb - 0.00 in0.0 mm 0.02 in0.5 mm
04:30 AM 46.8°F8.2°C 45.7°F7.6°C 96% Calm Calm -- 29.49 in998.6 mb - 0.01 in0.3 mm 0.03 in0.8 mm
04:40 AM 46.8°F8.2°C 45.7°F7.6°C 96% Calm Calm -- 29.49 in998.6 mb - 0.00 in0.0 mm 0.03 in0.8 mm
04:50 AM 46.8°F8.2°C 45.7°F7.6°C 96% Calm Calm -- 29.49 in998.6 mb - 0.00 in0.0 mm 0.03 in0.8 mm
05:00 AM 46.7°F8.2°C 45.6°F7.6°C 96% Calm Calm -- 29.49 in998.6 mb - 0.00 in0.0 mm 0.03 in0.8 mm
05:10 AM 46.7°F8.2°C 45.6°F7.6°C 96% Calm Calm -- 29.50 in999.0 mb - 0.00 in0.0 mm 0.03 in0.8 mm
05:20 AM 46.8°F8.2°C 45.7°F7.6°C 96% Calm Calm -- 29.50 in999.0 mb - 0.00 in0.0 mm 0.03 in0.8 mm
05:30 AM 46.9°F8.3°C 45.8°F7.7°C 96% Calm Calm -- 29.51 in999.3 mb - 0.00 in0.0 mm 0.03 in0.8 mm
05:40 AM 47.1°F8.4°C 46.0°F7.8°C 96% Calm Calm -- 29.51 in999.3 mb - 0.00 in0.0 mm 0.03 in0.8 mm
05:50 AM 47.2°F8.4°C 46.1°F7.8°C 96% Calm Calm -- 29.51 in999.3 mb - 0.00 in0.0 mm 0.03 in0.8 mm
06:00 AM 47.3°F8.5°C 46.2°F7.9°C 96% Calm Calm -- 29.51 in999.3 mb - 0.00 in0.0 mm 0.03 in0.8 mm
06:10 AM 47.4°F8.6°C 46.3°F7.9°C 96% 2.3 mph S3.7 kmh S 3.5 mph5.6 kmh 29.52 in999.7 mb - 0.00 in0.0 mm 0.03 in0.8 mm
06:20 AM 47.8°F8.8°C 46.7°F8.2°C 96% 3.5 mph SSE5.6 kmh SSE 3.5 mph5.6 kmh 29.52 in999.7 mb - 0.00 in0.0 mm 0.03 in0.8 mm
06:30 AM 48.1°F8.9°C 47.0°F8.3°C 96% 1.2 mph SSE1.9 kmh SSE 2.3 mph3.7 kmh 29.52 in999.7 mb - 0.00 in0.0 mm 0.03 in0.8 mm
06:40 AM 48.5°F9.2°C 47.4°F8.6°C 96% 3.5 mph SE5.6 kmh SE 5.8 mph9.3 kmh 29.52 in999.7 mb - 0.00 in0.0 mm 0.03 in0.8 mm
06:50 AM 48.5°F9.2°C 47.4°F8.6°C 96% 1.2 mph SSE1.9 kmh SSE 4.6 mph7.4 kmh 29.52 in999.7 mb - 0.00 in0.0 mm 0.03 in0.8 mm
07:00 AM 48.6°F9.2°C 47.5°F8.6°C 96% 2.3 mph ESE3.7 kmh ESE 3.5 mph5.6 kmh 29.52 in999.7 mb - 0.00 in0.0 mm 0.03 in0.8 mm
07:10 AM 48.6°F9.2°C 47.5°F8.6°C 96% 3.5 mph SE5.6 kmh SE 5.8 mph9.3 kmh 29.53 in1000.0 mb - 0.00 in0.0 mm 0.03 in0.8 mm
07:20 AM 48.6°F9.2°C 47.2°F8.4°C 95% Calm Calm -- 29.53 in1000.0 mb - 0.00 in0.0 mm 0.03 in0.8 mm
07:30 AM 48.5°F9.2°C 47.1°F8.4°C 95% Calm Calm 3.5 mph5.6 kmh 29.54 in1000.3 mb - 0.00 in0.0 mm 0.03 in0.8 mm
07:40 AM 48.4°F9.1°C 47.0°F8.3°C 95% Calm Calm -- 29.54 in1000.3 mb - 0.00 in0.0 mm 0.03 in0.8 mm
07:50 AM 48.5°F9.2°C 47.1°F8.4°C 95% Calm Calm -- 29.54 in1000.3 mb - 0.00 in0.0 mm 0.03 in0.8 mm
08:00 AM 48.5°F9.2°C 47.2°F8.4°C 95% Calm Calm -- 29.54 in1000.3 mb - 0.00 in0.0 mm 0.03 in0.8 mm
08:10 AM 48.8°F9.3°C 47.5°F8.6°C 95% 2.3 mph ESE3.7 kmh ESE 3.5 mph5.6 kmh 29.55 in1000.7 mb - 0.00 in0.0 mm 0.03 in0.8 mm
08:20 AM 49.0°F9.4°C 47.3°F8.5°C 94% 2.3 mph SE3.7 kmh SE 5.8 mph9.3 kmh 29.55 in1000.7 mb - 0.00 in0.0 mm 0.03 in0.8 mm
08:30 AM 49.2°F9.6°C 47.6°F8.7°C 94% 2.3 mph ESE3.7 kmh ESE 4.6 mph7.4 kmh 29.55 in1000.7 mb - 0.00 in0.0 mm 0.03 in0.8 mm
08:40 AM 49.7°F9.8°C 47.7°F8.7°C 93% 4.6 mph SE7.4 kmh SE 8.1 mph13.0 kmh 29.56 in1001.0 mb - 0.00 in0.0 mm 0.03 in0.8 mm
08:50 AM 50.9°F10.5°C 48.6°F9.2°C 92% 2.3 mph E3.7 kmh E 5.8 mph9.3 kmh 29.56 in1001.0 mb - 0.00 in0.0 mm 0.03 in0.8 mm
09:00 AM 52.1°F11.2°C 49.3°F9.6°C 90% 3.5 mph SE5.6 kmh SE 5.8 mph9.3 kmh 29.57 in1001.4 mb - 0.00 in0.0 mm 0.03 in0.8 mm
09:10 AM 53.1°F11.7°C 49.0°F9.4°C 86% 1.2 mph SE1.9 kmh SE 5.8 mph9.3 kmh 29.57 in1001.4 mb - 0.00 in0.0 mm 0.03 in0.8 mm
09:20 AM 54.1°F12.3°C 49.7°F9.8°C 85% 4.6 mph SE7.4 kmh SE 6.9 mph11.1 kmh 29.58 in1001.7 mb - 0.00 in0.0 mm 0.03 in0.8 mm
09:30 AM 55.1°F12.8°C 49.7°F9.8°C 82% 2.3 mph ENE3.7 kmh ENE 9.2 mph14.8 kmh 29.58 in1001.7 mb - 0.00 in0.0 mm 0.03 in0.8 mm
09:40 AM 56.1°F13.4°C 49.6°F9.8°C 79% 1.2 mph SE1.9 kmh SE 3.5 mph5.6 kmh 29.58 in1001.7 mb - 0.00 in0.0 mm 0.03 in0.8 mm
09:50 AM 56.9°F13.8°C 49.1°F9.5°C 75% 2.3 mph SE3.7 kmh SE 5.8 mph9.3 kmh 29.58 in1001.7 mb - 0.00 in0.0 mm 0.03 in0.8 mm
10:00 AM 56.2°F13.4°C 48.1°F8.9°C 74% 4.6 mph ENE7.4 kmh ENE 8.1 mph13.0 kmh 29.59 in1002.0 mb - 0.00 in0.0 mm 0.03 in0.8 mm
10:10 AM 55.8°F13.2°C 48.3°F9.1°C 76% 1.2 mph ESE1.9 kmh ESE 4.6 mph7.4 kmh 29.59 in1002.0 mb - 0.00 in0.0 mm 0.03 in0.8 mm
10:20 AM 55.6°F13.1°C 47.1°F8.4°C 73% 2.3 mph NE3.7 kmh NE 6.9 mph11.1 kmh 29.60 in1002.4 mb - 0.00 in0.0 mm 0.03 in0.8 mm
10:30 AM 54.7°F12.6°C 46.2°F7.9°C 73% 1.2 mph NNE1.9 kmh NNE 2.3 mph3.7 kmh 29.60 in1002.4 mb - 0.00 in0.0 mm 0.03 in0.8 mm
10:40 AM 54.7°F12.6°C 46.6°F8.1°C 74% 2.3 mph NE3.7 kmh NE 4.6 mph7.4 kmh 29.61 in1002.7 mb - 0.00 in0.0 mm 0.03 in0.8 mm
10:50 AM 54.8°F12.7°C 47.4°F8.6°C 76% 1.2 mph NE1.9 kmh NE 6.9 mph11.1 kmh 29.61 in1002.7 mb - 0.00 in0.0 mm 0.03 in0.8 mm
11:00 AM 55.3°F12.9°C 46.8°F8.2°C 73% 4.6 mph E7.4 kmh E 11.5 mph18.5 kmh 29.62 in1003.0 mb - 0.00 in0.0 mm 0.03 in0.8 mm
11:10 AM 55.1°F12.8°C 47.0°F8.3°C 74% 3.5 mph NE5.6 kmh NE 5.8 mph9.3 kmh 29.62 in1003.0 mb - 0.00 in0.0 mm 0.03 in0.8 mm
11:20 AM 55.0°F12.8°C 46.5°F8.1°C 73% 2.3 mph NE3.7 kmh NE 8.1 mph13.0 kmh 29.62 in1003.0 mb - 0.00 in0.0 mm 0.03 in0.8 mm
11:30 AM 55.4°F13.0°C 47.2°F8.4°C 74% 1.2 mph NNE1.9 kmh NNE 4.6 mph7.4 kmh 29.62 in1003.0 mb - 0.00 in0.0 mm 0.03 in0.8 mm
11:40 AM 56.4°F13.6°C 48.9°F9.4°C 76% 1.2 mph N1.9 kmh N 4.6 mph7.4 kmh 29.63 in1003.4 mb - 0.00 in0.0 mm 0.03 in0.8 mm
11:50 AM 57.7°F14.3°C 47.6°F8.7°C 69% 2.3 mph NE3.7 kmh NE 5.8 mph9.3 kmh 29.63 in1003.4 mb - 0.00 in0.0 mm 0.03 in0.8 mm
12:00 PM 57.8°F14.3°C 47.7°F8.7°C 69% Calm Calm -- 29.63 in1003.4 mb - 0.00 in0.0 mm 0.03 in0.8 mm
12:10 PM 57.8°F14.3°C 46.9°F8.3°C 67% 1.2 mph NE1.9 kmh NE 8.1 mph13.0 kmh 29.63 in1003.4 mb - 0.00 in0.0 mm 0.03 in0.8 mm
12:20 PM 57.7°F14.3°C 46.4°F8.0°C 66% 1.2 mph ESE1.9 kmh ESE 4.6 mph7.4 kmh 29.63 in1003.4 mb - 0.00 in0.0 mm 0.03 in0.8 mm
12:30 PM 58.6°F14.8°C 45.2°F7.3°C 61% 2.3 mph N3.7 kmh N 4.6 mph7.4 kmh 29.63 in1003.4 mb - 0.00 in0.0 mm 0.03 in0.8 mm
12:40 PM 59.7°F15.4°C 45.3°F7.4°C 59% 3.5 mph N5.6 kmh N 3.5 mph5.6 kmh 29.64 in1003.7 mb - 0.00 in0.0 mm 0.03 in0.8 mm
12:50 PM 60.8°F16.0°C 46.4°F8.0°C 59% 1.2 mph E1.9 kmh E 2.3 mph3.7 kmh 29.64 in1003.7 mb - 0.00 in0.0 mm 0.03 in0.8 mm
01:00 PM 61.3°F16.3°C 46.8°F8.2°C 59% 3.5 mph NNE5.6 kmh NNE 11.5 mph18.5 kmh 29.64 in1003.7 mb - 0.00 in0.0 mm 0.03 in0.8 mm
01:10 PM 61.6°F16.4°C 46.2°F7.9°C 57% 3.5 mph NNE5.6 kmh NNE 3.5 mph5.6 kmh 29.65 in1004.1 mb - 0.00 in0.0 mm 0.03 in0.8 mm
01:20 PM 61.4°F16.3°C 45.6°F7.6°C 56% 5.8 mph 9.3 kmh 9.2 mph14.8 kmh 29.65 in1004.1 mb - 0.00 in0.0 mm 0.03 in0.8 mm
01:30 PM 60.5°F15.8°C 44.7°F7.1°C 56% 1.2 mph NW1.9 kmh NW 3.5 mph5.6 kmh 29.66 in1004.4 mb - 0.00 in0.0 mm 0.03 in0.8 mm
01:40 PM 61.2°F16.2°C 45.4°F7.4°C 56% 4.6 mph N7.4 kmh N 9.2 mph14.8 kmh 29.66 in1004.4 mb - 0.00 in0.0 mm 0.03 in0.8 mm
01:50 PM 60.4°F15.8°C 44.2°F6.8°C 55% 4.6 mph N7.4 kmh N 4.6 mph7.4 kmh 29.67 in1004.7 mb - 0.00 in0.0 mm 0.03 in0.8 mm
02:00 PM 60.2°F15.7°C 44.4°F6.9°C 56% 4.6 mph NNE7.4 kmh NNE 10.4 mph16.7 kmh 29.67 in1004.7 mb - 0.00 in0.0 mm 0.03 in0.8 mm
02:10 PM 60.2°F15.7°C 43.5°F6.4°C 54% 3.5 mph N5.6 kmh N 8.1 mph13.0 kmh 29.68 in1005.1 mb - 0.00 in0.0 mm 0.03 in0.8 mm
02:20 PM 59.9°F15.5°C 43.2°F6.2°C 54% 4.6 mph N7.4 kmh N 5.8 mph9.3 kmh 29.68 in1005.1 mb - 0.00 in0.0 mm 0.03 in0.8 mm
02:30 PM 60.3°F15.7°C 42.6°F5.9°C 52% 2.3 mph N3.7 kmh N 3.5 mph5.6 kmh 29.68 in1005.1 mb - 0.00 in0.0 mm 0.03 in0.8 mm
02:40 PM 61.0°F16.1°C 42.8°F6.0°C 51% 3.5 mph N5.6 kmh N 6.9 mph11.1 kmh 29.68 in1005.1 mb - 0.00 in0.0 mm 0.03 in0.8 mm
02:50 PM 61.8°F16.6°C 42.4°F5.8°C 49% 3.5 mph N5.6 kmh N 5.8 mph9.3 kmh 29.68 in1005.1 mb - 0.00 in0.0 mm 0.03 in0.8 mm
03:00 PM 62.2°F16.8°C 42.2°F5.7°C 48% 1.2 mph E1.9 kmh E 4.6 mph7.4 kmh 29.69 in1005.4 mb - 0.00 in0.0 mm 0.03 in0.8 mm
03:10 PM 62.2°F16.8°C 43.3°F6.3°C 50% 2.3 mph NNE3.7 kmh NNE 6.9 mph11.1 kmh 29.69 in1005.4 mb - 0.00 in0.0 mm 0.03 in0.8 mm
03:20 PM 61.5°F16.4°C 45.2°F7.3°C 55% 6.9 mph NE11.1 kmh NE 9.2 mph14.8 kmh 29.70 in1005.8 mb - 0.00 in0.0 mm 0.03 in0.8 mm
03:30 PM 59.1°F15.1°C 45.2°F7.3°C 60% 4.6 mph E7.4 kmh E 9.2 mph14.8 kmh 29.70 in1005.8 mb - 0.00 in0.0 mm 0.03 in0.8 mm
03:40 PM 57.8°F14.3°C 44.0°F6.7°C 60% 3.5 mph NE5.6 kmh NE 4.6 mph7.4 kmh 29.71 in1006.1 mb - 0.00 in0.0 mm 0.03 in0.8 mm
03:50 PM 56.6°F13.7°C 43.7°F6.5°C 62% 1.2 mph NE1.9 kmh NE 6.9 mph11.1 kmh 29.71 in1006.1 mb - 0.00 in0.0 mm 0.03 in0.8 mm
04:00 PM 56.1°F13.4°C 44.1°F6.7°C 64% Calm Calm 4.6 mph7.4 kmh 29.72 in1006.4 mb - 0.00 in0.0 mm 0.03 in0.8 mm
04:10 PM 55.7°F13.2°C 44.5°F6.9°C 66% 1.2 mph NNE1.9 kmh NNE 3.5 mph5.6 kmh 29.72 in1006.4 mb - 0.00 in0.0 mm 0.03 in0.8 mm
04:20 PM 55.3°F12.9°C 44.5°F6.9°C 67% 2.3 mph NW3.7 kmh NW 6.9 mph11.1 kmh 29.73 in1006.8 mb - 0.00 in0.0 mm 0.03 in0.8 mm
04:30 PM 54.8°F12.7°C 46.0°F7.8°C 72% 4.6 mph NW7.4 kmh NW 9.2 mph14.8 kmh 29.74 in1007.1 mb - 0.00 in0.0 mm 0.03 in0.8 mm
04:40 PM 53.6°F12.0°C 46.3°F7.9°C 76% 3.5 mph NW5.6 kmh NW 10.4 mph16.7 kmh 29.75 in1007.5 mb - 0.00 in0.0 mm 0.03 in0.8 mm
04:50 PM 52.3°F11.3°C 45.6°F7.6°C 78% 3.5 mph WNW5.6 kmh WNW 8.1 mph13.0 kmh 29.75 in1007.5 mb - 0.00 in0.0 mm 0.03 in0.8 mm
05:00 PM 51.9°F11.1°C 45.6°F7.6°C 79% 1.2 mph W1.9 kmh W 3.5 mph5.6 kmh 29.76 in1007.8 mb - 0.00 in0.0 mm 0.03 in0.8 mm
05:10 PM 52.2°F11.2°C 45.9°F7.7°C 79% 1.2 mph NW1.9 kmh NW 4.6 mph7.4 kmh 29.76 in1007.8 mb - 0.00 in0.0 mm 0.03 in0.8 mm
05:20 PM 52.2°F11.2°C 45.2°F7.3°C 77% Calm Calm 2.3 mph3.7 kmh 29.76 in1007.8 mb - 0.00 in0.0 mm 0.03 in0.8 mm
05:30 PM 52.3°F11.3°C 45.0°F7.2°C 76% Calm Calm -- 29.76 in1007.8 mb - 0.00 in0.0 mm 0.03 in0.8 mm
05:40 PM 52.6°F11.4°C 45.2°F7.3°C 76% Calm Calm -- 29.77 in1008.1 mb - 0.00 in0.0 mm 0.03 in0.8 mm
05:50 PM 52.8°F11.6°C 44.7°F7.1°C 74% Calm Calm 1.2 mph1.9 kmh 29.77 in1008.1 mb - 0.00 in0.0 mm 0.03 in0.8 mm
06:00 PM 52.8°F11.6°C 45.1°F7.3°C 75% 1.2 mph NW1.9 kmh NW -- 29.77 in1008.1 mb - 0.00 in0.0 mm 0.03 in0.8 mm
06:10 PM 52.8°F11.6°C 46.5°F8.1°C 79% Calm Calm 2.3 mph3.7 kmh 29.78 in1008.5 mb - 0.00 in0.0 mm 0.03 in0.8 mm
06:20 PM 52.7°F11.5°C 47.0°F8.3°C 81% 2.3 mph NW3.7 kmh NW 4.6 mph7.4 kmh 29.79 in1008.8 mb - 0.00 in0.0 mm 0.03 in0.8 mm
06:30 PM 52.5°F11.4°C 46.8°F8.2°C 81% 1.2 mph NW1.9 kmh NW 3.5 mph5.6 kmh 29.79 in1008.8 mb - 0.00 in0.0 mm 0.03 in0.8 mm
06:40 PM 52.2°F11.2°C 46.8°F8.2°C 82% 1.2 mph W1.9 kmh W 1.2 mph1.9 kmh 29.80 in1009.1 mb - 0.00 in0.0 mm 0.03 in0.8 mm
06:50 PM 51.8°F11.0°C 46.8°F8.2°C 83% Calm Calm -- 29.80 in1009.1 mb - 0.00 in0.0 mm 0.03 in0.8 mm
07:00 PM 51.5°F10.8°C 46.8°F8.2°C 84% 1.2 mph NW1.9 kmh NW -- 29.81 in1009.5 mb - 0.00 in0.0 mm 0.03 in0.8 mm
07:10 PM 51.1°F10.6°C 46.4°F8.0°C 84% Calm Calm -- 29.81 in1009.5 mb - 0.00 in0.0 mm 0.03 in0.8 mm
07:20 PM 50.7°F10.4°C 46.3°F7.9°C 85% Calm Calm 3.5 mph5.6 kmh 29.82 in1009.8 mb - 0.00 in0.0 mm 0.03 in0.8 mm
07:30 PM 50.3°F10.2°C 46.0°F7.8°C 85% Calm Calm -- 29.82 in1009.8 mb - 0.00 in0.0 mm 0.03 in0.8 mm
07:40 PM 50.0°F10.0°C 46.0°F7.8°C 86% Calm Calm -- 29.82 in1009.8 mb - 0.00 in0.0 mm 0.03 in0.8 mm
07:50 PM 49.7°F9.8°C 45.4°F7.4°C 85% Calm Calm -- 29.82 in1009.8 mb - 0.00 in0.0 mm 0.03 in0.8 mm
08:00 PM 49.3°F9.6°C 45.3°F7.4°C 86% Calm Calm -- 29.83 in1010.2 mb - 0.00 in0.0 mm 0.03 in0.8 mm
08:10 PM 49.0°F9.4°C 45.0°F7.2°C 86% Calm Calm -- 29.84 in1010.5 mb - 0.00 in0.0 mm 0.03 in0.8 mm
08:20 PM 48.6°F9.2°C 44.6°F7.0°C 86% Calm Calm 5.8 mph9.3 kmh 29.84 in1010.5 mb - 0.00 in0.0 mm 0.03 in0.8 mm
08:30 PM 48.3°F9.1°C 44.6°F7.0°C 87% Calm Calm -- 29.84 in1010.5 mb - 0.00 in0.0 mm 0.03 in0.8 mm
08:40 PM 48.1°F8.9°C 44.7°F7.1°C 88% 1.2 mph WNW1.9 kmh WNW 4.6 mph7.4 kmh 29.84 in1010.5 mb - 0.00 in0.0 mm 0.03 in0.8 mm
08:50 PM 48.0°F8.9°C 44.9°F7.2°C 89% Calm Calm -- 29.85 in1010.8 mb - 0.00 in0.0 mm 0.03 in0.8 mm
09:00 PM 47.8°F8.8°C 44.7°F7.1°C 89% Calm Calm -- 29.85 in1010.8 mb - 0.00 in0.0 mm 0.03 in0.8 mm
09:10 PM 47.5°F8.6°C 44.4°F6.9°C 89% Calm Calm -- 29.86 in1011.2 mb - 0.00 in0.0 mm 0.03 in0.8 mm
09:20 PM 47.3°F8.5°C 44.5°F6.9°C 90% Calm Calm 1.2 mph1.9 kmh 29.86 in1011.2 mb - 0.00 in0.0 mm 0.03 in0.8 mm
09:30 PM 47.3°F8.5°C 44.8°F7.1°C 91% Calm Calm 2.3 mph3.7 kmh 29.86 in1011.2 mb - 0.00 in0.0 mm 0.03 in0.8 mm
09:40 PM 47.6°F8.7°C 45.4°F7.4°C 92% Calm Calm 4.6 mph7.4 kmh 29.87 in1011.5 mb - 0.00 in0.0 mm 0.03 in0.8 mm
09:50 PM 47.8°F8.8°C 45.6°F7.6°C 92% 2.3 mph NW3.7 kmh NW 3.5 mph5.6 kmh 29.87 in1011.5 mb - 0.00 in0.0 mm 0.03 in0.8 mm
10:00 PM 48.1°F8.9°C 45.9°F7.7°C 92% Calm Calm 4.6 mph7.4 kmh 29.88 in1011.9 mb - 0.00 in0.0 mm 0.03 in0.8 mm
10:10 PM 48.1°F8.9°C 45.9°F7.7°C 92% 2.3 mph NW3.7 kmh NW 4.6 mph7.4 kmh 29.88 in1011.9 mb - 0.00 in0.0 mm 0.03 in0.8 mm
10:20 PM 48.1°F8.9°C 45.6°F7.6°C 91% 1.2 mph N1.9 kmh N 3.5 mph5.6 kmh 29.88 in1011.9 mb - 0.00 in0.0 mm 0.03 in0.8 mm
10:30 PM 48.1°F8.9°C 45.5°F7.5°C 91% 1.2 mph NNW1.9 kmh NNW 3.5 mph5.6 kmh 29.88 in1011.9 mb - 0.00 in0.0 mm 0.03 in0.8 mm
10:40 PM 47.8°F8.8°C 45.0°F7.2°C 90% 3.5 mph N5.6 kmh N 5.8 mph9.3 kmh 29.88 in1011.9 mb - 0.00 in0.0 mm 0.03 in0.8 mm
10:50 PM 47.6°F8.7°C 44.8°F7.1°C 90% Calm Calm 2.3 mph3.7 kmh 29.89 in1012.2 mb - 0.00 in0.0 mm 0.03 in0.8 mm
11:00 PM 47.3°F8.5°C 44.2°F6.8°C 89% Calm Calm 2.3 mph3.7 kmh 29.89 in1012.2 mb - 0.00 in0.0 mm 0.04 in1.0 mm
11:10 PM 47.0°F8.3°C 43.9°F6.6°C 89% Calm Calm 2.3 mph3.7 kmh 29.89 in1012.2 mb - 0.00 in0.0 mm 0.04 in1.0 mm
11:20 PM 46.7°F8.2°C 43.6°F6.4°C 89% Calm Calm -- 29.90 in1012.5 mb - 0.00 in0.0 mm 0.04 in1.0 mm
11:30 PM 46.5°F8.1°C 43.7°F6.5°C 90% Calm Calm 1.2 mph1.9 kmh 29.90 in1012.5 mb - 0.00 in0.0 mm 0.04 in1.0 mm
11:40 PM 46.2°F7.9°C 43.4°F6.3°C 90% 2.3 mph NW3.7 kmh NW 4.6 mph7.4 kmh 29.91 in1012.9 mb - 0.00 in0.0 mm 0.04 in1.0 mm
11:50 PM 46.0°F7.8°C 43.2°F6.2°C 90% 2.3 mph WNW3.7 kmh WNW 4.6 mph7.4 kmh 29.92 in1013.2 mb - 0.00 in0.0 mm 0.04 in1.0 mm